createdAt,value
2022-11-21T00:01:54.794Z,-0.18
2022-11-21T00:04:21.399Z,-0.12
2022-11-21T00:06:47.928Z,-0.14
2022-11-21T00:09:14.629Z,-0.21
2022-11-21T00:11:41.123Z,-0.30
2022-11-21T00:14:07.740Z,-0.29
2022-11-21T00:16:34.298Z,-0.29
2022-11-21T00:19:02.966Z,-0.25
2022-11-21T00:21:29.622Z,-0.29
2022-11-21T00:23:56.211Z,-0.34
2022-11-21T00:26:22.794Z,-0.25
2022-11-21T00:28:49.440Z,-0.12
2022-11-21T00:31:24.103Z,-0.06
2022-11-21T00:33:50.826Z,-0.03
2022-11-21T00:36:17.435Z,0.07
2022-11-21T00:38:44.154Z,-0.01
2022-11-21T00:41:10.827Z,-0.01
2022-11-21T00:43:37.703Z,-0.01
2022-11-21T00:46:04.402Z,-0.02
2022-11-21T00:48:32.210Z,0.01
2022-11-21T00:51:00.484Z,-0.07
2022-11-21T00:53:27.197Z,-0.06
2022-11-21T00:55:53.840Z,-0.10
2022-11-21T00:58:20.389Z,-0.11
2022-11-21T01:00:47.060Z,-0.14
2022-11-21T01:03:13.650Z,-0.21
2022-11-21T01:05:40.293Z,-0.24
2022-11-21T01:08:06.973Z,-0.20
2022-11-21T01:10:35.521Z,-0.19
2022-11-21T01:13:02.424Z,-0.23
2022-11-21T01:15:29.093Z,-0.24
2022-11-21T01:17:55.660Z,-0.27
2022-11-21T01:20:22.246Z,-0.26
2022-11-21T01:22:48.908Z,-0.26
2022-11-21T01:25:15.519Z,-0.26
2022-11-21T01:27:42.014Z,-0.35
2022-11-21T01:30:09.049Z,-0.32
2022-11-21T01:32:35.828Z,-0.27
2022-11-21T01:35:02.406Z,-0.26
2022-11-21T01:37:29.062Z,-0.29
2022-11-21T01:39:55.611Z,-0.27
2022-11-21T01:42:22.270Z,-0.24
2022-11-21T01:44:52.047Z,-0.26
2022-11-21T01:47:19.080Z,-0.27
2022-11-21T01:49:46.996Z,-0.20
2022-11-21T01:52:25.473Z,-0.14
2022-11-21T01:54:56.985Z,-0.07
2022-11-21T01:57:43.958Z,-0.04
2022-11-21T02:00:18.248Z,-0.16
2022-11-21T02:02:51.608Z,-0.21
2022-11-21T02:05:23.280Z,-0.20
2022-11-21T02:07:55.239Z,-0.17
2022-11-21T02:10:22.940Z,-0.18
2022-11-21T02:12:52.137Z,-0.17
2022-11-21T02:15:21.549Z,-0.20
2022-11-21T02:17:48.091Z,-0.14
2022-11-21T02:20:17.705Z,-0.14
2022-11-21T02:23:09.954Z,-0.14
2022-11-21T02:25:39.184Z,-0.14
2022-11-21T02:28:08.387Z,-0.10
2022-11-21T02:30:37.683Z,-0.03
2022-11-21T02:33:04.972Z,0.09
2022-11-21T02:35:33.744Z,0.13
2022-11-21T02:38:29.099Z,0.14
2022-11-21T02:41:01.776Z,0.18
2022-11-21T02:43:37.594Z,0.22
2022-11-21T02:46:04.248Z,0.22
2022-11-21T02:48:30.854Z,0.24
2022-11-21T02:50:57.417Z,0.32
2022-11-21T02:53:24.007Z,0.38
2022-11-21T02:55:50.716Z,0.40
2022-11-21T02:58:17.351Z,0.38
2022-11-21T03:00:44.054Z,0.38
2022-11-21T03:03:11.277Z,0.30
2022-11-21T03:05:39.557Z,0.25
2022-11-21T03:08:06.777Z,0.22
2022-11-21T03:10:33.723Z,0.25
2022-11-21T03:13:03.160Z,0.25
2022-11-21T03:15:32.068Z,0.18
2022-11-21T03:17:58.698Z,0.07
2022-11-21T03:20:25.540Z,0.09
2022-11-21T03:22:53.564Z,0.09
2022-11-21T03:25:20.932Z,0.07
2022-11-21T03:27:50.971Z,0.03
2022-11-21T03:30:17.669Z,-0.05
2022-11-21T03:32:44.314Z,-0.11
2022-11-21T03:35:11.731Z,-0.03
2022-11-21T03:37:42.418Z,0.01
2022-11-21T03:40:09.793Z,0.06
2022-11-21T03:42:36.425Z,0.21
2022-11-21T03:45:03.270Z,0.24
2022-11-21T03:47:29.941Z,0.18
2022-11-21T03:49:56.518Z,0.15
2022-11-21T03:52:23.167Z,0.09
2022-11-21T03:54:49.759Z,-0.03
2022-11-21T03:57:16.395Z,-0.09
2022-11-21T03:59:42.956Z,-0.15
2022-11-21T04:02:09.593Z,-0.14
2022-11-21T04:04:36.132Z,-0.14
2022-11-21T04:07:02.895Z,-0.19
2022-11-21T04:09:29.654Z,-0.19
2022-11-21T04:11:56.244Z,-0.18
2022-11-21T04:14:22.728Z,-0.21
2022-11-21T04:16:49.514Z,-0.23
2022-11-21T04:19:16.178Z,-0.40
2022-11-21T04:21:42.781Z,-0.50
2022-11-21T04:24:09.378Z,-0.56
2022-11-21T04:26:36.018Z,-0.42
2022-11-21T04:29:02.621Z,-0.37
2022-11-21T04:31:29.227Z,-0.29
2022-11-21T04:33:55.794Z,-0.26
2022-11-21T04:36:22.327Z,-0.19
2022-11-21T04:38:48.998Z,-0.20
2022-11-21T04:41:15.590Z,-0.18
2022-11-21T04:43:42.229Z,-0.14
2022-11-21T04:46:08.987Z,-0.11
2022-11-21T04:48:35.664Z,-0.13
2022-11-21T04:51:02.225Z,-0.24
2022-11-21T04:53:28.782Z,-0.23
2022-11-21T04:55:55.369Z,-0.22
2022-11-21T04:58:21.903Z,-0.23
2022-11-21T05:00:48.677Z,-0.24
2022-11-21T05:03:15.519Z,-0.21
2022-11-21T05:05:42.246Z,-0.11
2022-11-21T05:08:08.816Z,-0.02
2022-11-21T05:10:55.411Z,0.01
2022-11-21T05:13:22.115Z,0.03
2022-11-21T05:15:51.581Z,0.09
2022-11-21T05:18:19.980Z,0.04
2022-11-21T05:20:46.619Z,0.03
2022-11-21T05:23:13.337Z,-0.02
2022-11-21T05:25:40.344Z,0.01
2022-11-21T05:28:07.071Z,0.07
2022-11-21T05:30:33.731Z,0.13
2022-11-21T05:33:00.463Z,0.13
2022-11-21T05:35:27.005Z,0.18
2022-11-21T05:37:59.622Z,0.22
2022-11-21T05:40:26.841Z,0.25
2022-11-21T05:43:11.800Z,0.23
2022-11-21T05:45:38.429Z,0.14
2022-11-21T05:48:07.935Z,0.08
2022-11-21T05:50:36.329Z,0.04
2022-11-21T05:53:04.984Z,-0.02
2022-11-21T05:55:34.101Z,0.01
2022-11-21T05:58:01.375Z,-0.01
2022-11-21T06:00:28.980Z,-0.04
2022-11-21T06:03:14.224Z,-0.04
2022-11-21T06:05:41.164Z,-0.04
2022-11-21T06:08:07.803Z,-0.07
2022-11-21T06:10:34.527Z,-0.05
2022-11-21T06:13:01.592Z,-0.07
2022-11-21T06:15:28.831Z,-0.08
2022-11-21T06:17:55.453Z,-0.09
2022-11-21T06:20:22.087Z,-0.08
2022-11-21T06:22:48.700Z,-0.07
2022-11-21T06:25:15.356Z,0.06
2022-11-21T06:27:41.937Z,0.08
2022-11-21T06:30:08.884Z,0.08
2022-11-21T06:32:38.629Z,0.10
2022-11-21T06:35:05.885Z,0.11
2022-11-21T06:37:32.527Z,0.23
2022-11-21T06:39:59.661Z,0.21
2022-11-21T06:42:26.362Z,0.25
2022-11-21T06:44:53.365Z,0.21
2022-11-21T06:47:20.401Z,0.18
2022-11-21T06:49:47.168Z,0.20
2022-11-21T06:52:13.769Z,0.19
2022-11-21T06:54:40.448Z,0.12
2022-11-21T06:57:07.293Z,0.17
2022-11-21T06:59:34.056Z,0.20
2022-11-21T07:02:00.760Z,0.26
2022-11-21T07:04:27.680Z,0.36
2022-11-21T07:06:54.516Z,0.42
2022-11-21T07:09:36.410Z,0.42
2022-11-21T07:12:22.147Z,0.40
2022-11-21T07:14:48.924Z,0.41
2022-11-21T07:17:15.784Z,0.47
2022-11-21T07:19:42.337Z,0.42
2022-11-21T07:22:09.204Z,0.43
2022-11-21T07:24:35.791Z,0.37
2022-11-21T07:27:02.502Z,0.41
2022-11-21T07:29:29.728Z,0.37
2022-11-21T07:31:56.645Z,0.34
2022-11-21T07:34:23.204Z,0.35
2022-11-21T07:36:49.806Z,0.41
2022-11-21T07:39:16.630Z,0.47
2022-11-21T07:41:43.184Z,0.45
2022-11-21T07:44:09.878Z,0.50
2022-11-21T07:46:36.491Z,0.55
2022-11-21T07:49:03.849Z,0.59
2022-11-21T07:51:30.846Z,0.70
2022-11-21T07:53:57.405Z,0.73
2022-11-21T07:56:26.436Z,0.73
2022-11-21T07:58:53.556Z,0.80
2022-11-21T08:01:20.249Z,0.82
2022-11-21T08:03:46.976Z,0.82
2022-11-21T08:06:13.908Z,0.84
2022-11-21T08:08:40.473Z,0.87
2022-11-21T08:11:07.323Z,0.95
2022-11-21T08:13:35.483Z,0.93
2022-11-21T08:16:05.359Z,0.99
2022-11-21T08:18:32.453Z,1.01
2022-11-21T08:21:02.500Z,1.06
2022-11-21T08:23:29.150Z,1.08
2022-11-21T08:25:55.707Z,1.06
2022-11-21T08:28:22.440Z,1.11
2022-11-21T08:30:49.390Z,1.12
2022-11-21T08:33:16.715Z,1.14
2022-11-21T08:35:43.364Z,1.13
2022-11-21T08:38:10.098Z,1.21
2022-11-21T08:40:36.866Z,1.26
2022-11-21T08:43:08.996Z,1.32
2022-11-21T08:45:36.959Z,1.35
2022-11-21T08:48:04.477Z,1.40
2022-11-21T08:50:32.070Z,1.43
2022-11-21T08:53:02.250Z,1.74
2022-11-21T08:55:29.930Z,1.53
2022-11-21T08:57:56.657Z,1.47
2022-11-21T09:00:23.531Z,1.46
2022-11-21T09:02:50.291Z,1.51
2022-11-21T09:05:16.880Z,1.74
2022-11-21T09:07:43.575Z,1.74
2022-11-21T09:10:10.602Z,1.75
2022-11-21T09:12:37.233Z,1.72
2022-11-21T09:15:23.007Z,1.49
2022-11-21T09:18:04.853Z,1.77
2022-11-21T09:20:34.199Z,1.75
2022-11-21T09:23:05.974Z,1.73
2022-11-21T09:25:33.062Z,1.76
2022-11-21T09:28:01.147Z,1.67
2022-11-21T09:30:27.798Z,1.99
2022-11-21T09:32:54.387Z,2.01
2022-11-21T09:35:21.078Z,1.90
2022-11-21T09:37:47.677Z,1.94
2022-11-21T09:40:17.687Z,2.11
2022-11-21T09:42:52.879Z,2.17
2022-11-21T09:45:38.432Z,1.88
2022-11-21T09:48:12.900Z,1.72
2022-11-21T09:50:47.093Z,1.92
2022-11-21T09:53:19.014Z,2.17
2022-11-21T09:56:13.973Z,2.29
2022-11-21T09:58:49.233Z,2.45
2022-11-21T10:01:17.224Z,2.49
2022-11-21T10:03:47.420Z,2.47
2022-11-21T10:06:26.545Z,2.58
2022-11-21T10:09:16.448Z,2.58
2022-11-21T10:12:21.063Z,2.81
2022-11-21T10:15:09.436Z,2.67
2022-11-21T10:18:00.861Z,2.76
2022-11-21T10:20:27.666Z,2.78
2022-11-21T10:23:09.105Z,2.35
2022-11-21T10:25:39.950Z,2.32
2022-11-21T10:28:23.177Z,2.59
2022-11-21T10:30:52.532Z,2.68
2022-11-21T10:33:31.649Z,2.75
2022-11-21T10:36:05.676Z,2.89
2022-11-21T10:38:38.206Z,2.90
2022-11-21T10:41:30.522Z,2.82
2022-11-21T10:44:23.112Z,3.13
2022-11-21T10:46:57.335Z,3.34
2022-11-21T10:49:28.985Z,3.52
2022-11-21T10:52:15.063Z,3.68
2022-11-21T10:55:02.591Z,3.72
2022-11-21T10:57:33.092Z,3.76
2022-11-21T11:00:02.473Z,4.07
2022-11-21T11:02:29.170Z,4.36
2022-11-21T11:05:15.971Z,4.53
2022-11-21T11:07:58.683Z,4.25
2022-11-21T11:10:28.137Z,4.33
2022-11-21T11:13:38.867Z,4.27
2022-11-21T11:16:18.111Z,4.03
2022-11-21T11:19:11.000Z,3.80
2022-11-21T11:21:50.660Z,3.76
2022-11-21T11:24:17.575Z,3.75
2022-11-21T11:26:48.475Z,3.76
2022-11-21T11:29:21.080Z,3.56
2022-11-21T11:32:01.016Z,3.46
2022-11-21T11:34:40.655Z,3.51
2022-11-21T11:37:12.754Z,3.41
2022-11-21T11:40:08.649Z,3.26
2022-11-21T11:43:21.268Z,3.19
2022-11-21T11:46:18.915Z,3.09
2022-11-21T11:49:16.840Z,2.73
2022-11-21T11:51:42.274Z,2.67
2022-11-21T11:54:20.015Z,2.45
2022-11-21T11:56:47.409Z,1.92
2022-11-21T11:59:31.620Z,2.08
2022-11-21T12:02:17.508Z,2.59
2022-11-21T12:04:56.580Z,2.83
2022-11-21T12:08:33.122Z,2.54
2022-11-21T12:10:27.585Z,2.42
2022-11-21T12:13:11.228Z,2.33
2022-11-21T12:15:49.821Z,2.50
2022-11-21T12:18:22.347Z,2.76
2022-11-21T12:21:14.276Z,2.65
2022-11-21T12:23:58.117Z,2.76
2022-11-21T12:26:36.344Z,2.86
2022-11-21T12:29:32.115Z,3.05
2022-11-21T12:32:04.815Z,3.24
2022-11-21T12:34:40.561Z,3.47
2022-11-21T12:37:28.997Z,3.66
2022-11-21T12:40:00.434Z,3.71
2022-11-21T12:42:51.441Z,3.72
2022-11-21T12:45:36.728Z,3.68
2022-11-21T12:48:40.728Z,3.75
2022-11-21T12:51:57.133Z,3.49
2022-11-21T12:54:38.662Z,3.20
2022-11-21T12:57:11.711Z,3.20
2022-11-21T12:59:53.527Z,3.34
2022-11-21T13:02:55.564Z,3.19
2022-11-21T13:05:27.639Z,3.44
2022-11-21T13:08:02.327Z,3.57
2022-11-21T13:10:29.828Z,3.56
2022-11-21T13:13:23.912Z,3.58
2022-11-21T13:16:10.474Z,3.56
2022-11-21T13:18:48.964Z,3.52
2022-11-21T13:21:53.084Z,3.38
2022-11-21T13:24:45.144Z,3.27
2022-11-21T13:27:31.046Z,3.43
2022-11-21T13:30:07.650Z,3.44
2022-11-21T13:32:49.893Z,3.57
2022-11-21T13:35:16.565Z,3.56
2022-11-21T13:37:49.315Z,3.56
2022-11-21T13:40:28.482Z,3.68
2022-11-21T13:43:33.283Z,3.72
2022-11-21T13:46:01.387Z,3.68
2022-11-21T13:48:40.222Z,3.79
2022-11-21T13:51:38.024Z,3.78
2022-11-21T13:54:26.037Z,3.78
2022-11-21T13:57:23.877Z,3.73
2022-11-21T14:00:28.086Z,3.69
2022-11-21T14:02:57.805Z,3.64
2022-11-21T14:06:03.759Z,3.56
2022-11-21T14:08:30.689Z,3.53
2022-11-21T14:10:58.450Z,3.57
2022-11-21T14:13:31.591Z,3.57
2022-11-21T14:16:07.235Z,3.46
2022-11-21T14:18:35.883Z,3.38
2022-11-21T14:21:04.417Z,3.26
2022-11-21T14:23:34.146Z,3.23
2022-11-21T14:26:12.513Z,3.25
2022-11-21T14:28:39.324Z,3.28
2022-11-21T14:31:08.862Z,3.20
2022-11-21T14:33:40.482Z,3.12
2022-11-21T14:36:16.458Z,3.03
2022-11-21T14:39:13.879Z,3.01
2022-11-21T14:41:39.056Z,2.88
2022-11-21T14:44:17.011Z,2.92
2022-11-21T14:46:44.439Z,3.03
2022-11-21T14:49:16.938Z,3.05
2022-11-21T14:51:48.169Z,3.04
2022-11-21T14:54:18.964Z,2.92
2022-11-21T14:56:56.207Z,2.96
2022-11-21T14:59:26.171Z,2.89
2022-11-21T15:02:11.538Z,2.74
2022-11-21T15:04:38.609Z,2.83
2022-11-21T15:07:05.278Z,2.85
2022-11-21T15:12:48.009Z,2.99
2022-11-21T15:15:36.049Z,3.01
2022-11-21T15:20:56.369Z,3.13
2022-11-21T15:23:27.142Z,3.17
2022-11-21T15:28:54.963Z,3.08
2022-11-21T15:31:23.403Z,3.10
2022-11-21T15:34:12.538Z,3.10
2022-11-21T15:36:40.622Z,3.17
2022-11-21T15:39:18.982Z,3.20
2022-11-21T15:41:46.145Z,3.06
2022-11-21T15:44:13.565Z,2.85
2022-11-21T15:46:43.801Z,2.78
2022-11-21T15:52:07.717Z,2.82
2022-11-21T15:54:36.770Z,2.79
2022-11-21T15:57:03.401Z,2.62
2022-11-21T15:57:13.008Z,3.10
2022-11-21T15:57:14.195Z,2.88
2022-11-21T15:59:30.266Z,2.60
2022-11-21T16:01:57.260Z,2.58
2022-11-21T16:04:25.963Z,2.45
2022-11-21T16:06:53.909Z,2.25
2022-11-21T16:09:20.511Z,2.17
2022-11-21T16:11:47.413Z,2.30
2022-11-21T16:14:16.054Z,2.33
2022-11-21T16:16:43.881Z,2.22
2022-11-21T16:19:14.604Z,2.12
2022-11-21T16:21:41.834Z,2.14
2022-11-21T16:24:08.584Z,1.84
2022-11-21T16:26:35.166Z,1.98
2022-11-21T16:29:05.370Z,2.03
2022-11-21T16:31:32.478Z,1.89
2022-11-21T16:34:00.464Z,1.81
2022-11-21T16:36:29.100Z,1.59
2022-11-21T16:39:00.429Z,1.60
2022-11-21T16:41:30.149Z,1.72
2022-11-21T16:43:56.783Z,1.74
2022-11-21T16:46:25.281Z,1.79
2022-11-21T16:49:02.672Z,1.82
2022-11-21T16:51:30.080Z,1.83
2022-11-21T16:53:57.508Z,1.85
2022-11-21T16:56:24.877Z,1.77
2022-11-21T16:58:51.423Z,1.78
2022-11-21T17:01:21.265Z,1.75
2022-11-21T17:03:49.240Z,1.79
2022-11-21T17:06:18.526Z,1.82
2022-11-21T17:08:46.979Z,1.87
2022-11-21T17:11:18.234Z,1.96
2022-11-21T17:13:47.116Z,1.94
2022-11-21T17:16:15.161Z,1.91
2022-11-21T17:18:41.731Z,1.99
2022-11-21T17:21:11.230Z,2.07
2022-11-21T17:23:39.952Z,2.10
2022-11-21T17:26:08.642Z,2.00
2022-11-21T17:28:37.941Z,1.94
2022-11-21T17:31:11.422Z,1.86
2022-11-21T17:33:38.383Z,1.75
2022-11-21T17:36:06.909Z,1.74
2022-11-21T17:38:33.582Z,1.68
2022-11-21T17:41:04.530Z,1.69
2022-11-21T17:43:32.465Z,1.70
2022-11-21T17:46:09.301Z,1.53
2022-11-21T17:48:38.132Z,1.36
2022-11-21T17:51:20.370Z,1.29
2022-11-21T17:53:48.989Z,1.43
2022-11-21T17:56:17.748Z,1.33
2022-11-21T17:58:44.922Z,1.48
2022-11-21T18:01:18.463Z,1.18
2022-11-21T18:03:47.101Z,1.27
2022-11-21T18:06:16.177Z,1.21
2022-11-21T18:08:45.420Z,1.25
2022-11-21T18:11:14.034Z,1.11
2022-11-21T18:13:41.064Z,1.27
2022-11-21T18:16:20.232Z,1.31
2022-11-21T18:18:47.526Z,1.37
2022-11-21T18:21:17.176Z,1.41
2022-11-21T18:23:44.423Z,1.28
2022-11-21T18:26:16.696Z,1.22
2022-11-21T18:28:43.947Z,1.19
2022-11-21T18:31:13.242Z,0.99
2022-11-21T18:33:40.960Z,1.14
2022-11-21T18:36:08.696Z,1.00
2022-11-21T18:38:48.878Z,0.89
2022-11-21T18:41:18.480Z,1.10
2022-11-21T18:43:50.727Z,0.98
2022-11-21T18:46:17.654Z,1.18
2022-11-21T18:49:02.121Z,1.00
2022-11-21T18:51:32.109Z,1.07
2022-11-21T18:54:00.971Z,1.09
2022-11-21T18:56:27.579Z,1.35
2022-11-21T18:58:58.595Z,1.45
2022-11-21T19:01:28.103Z,1.30
2022-11-21T19:03:55.654Z,1.59
2022-11-21T19:06:24.393Z,1.51
2022-11-21T19:08:55.855Z,1.73
2022-11-21T19:11:24.690Z,1.74
2022-11-21T19:13:52.515Z,1.57
2022-11-21T19:16:21.559Z,1.46
2022-11-21T19:19:11.760Z,1.58
2022-11-21T19:21:39.771Z,1.43
2022-11-21T19:24:10.289Z,1.58
2022-11-21T19:26:36.899Z,1.77
2022-11-21T19:29:03.601Z,1.73
2022-11-21T19:31:30.205Z,1.55
2022-11-21T19:33:58.106Z,1.66
2022-11-21T19:36:25.148Z,1.49
2022-11-21T19:38:52.048Z,1.53
2022-11-21T19:41:22.453Z,1.67
2022-11-21T19:43:51.374Z,1.61
2022-11-21T19:46:26.602Z,1.27
2022-11-21T19:48:55.583Z,1.44
2022-11-21T19:51:27.589Z,1.55
2022-11-21T19:53:54.221Z,1.30
2022-11-21T19:56:23.257Z,1.46
2022-11-21T19:58:50.424Z,1.59
2022-11-21T20:01:19.443Z,1.68
2022-11-21T20:03:47.931Z,1.47
2022-11-21T20:06:20.065Z,1.74
2022-11-21T20:08:52.709Z,1.83
2022-11-21T20:11:20.749Z,1.85
2022-11-21T20:13:48.695Z,1.83
2022-11-21T20:16:28.492Z,1.56
2022-11-21T20:18:57.735Z,1.75
2022-11-21T20:21:24.368Z,1.79
2022-11-21T20:23:51.203Z,1.83
2022-11-21T20:26:19.859Z,1.85
2022-11-21T20:28:47.189Z,1.79
2022-11-21T20:31:16.885Z,1.83
2022-11-21T20:33:46.043Z,1.98
2022-11-21T20:36:17.316Z,1.90
2022-11-21T20:38:58.123Z,2.12
2022-11-21T20:41:27.038Z,2.24
2022-11-21T20:46:46.127Z,2.24
2022-11-21T20:49:12.744Z,2.15
2022-11-21T20:54:27.058Z,2.01
2022-11-21T20:56:53.812Z,1.94
2022-11-21T20:59:20.399Z,2.12
2022-11-21T21:01:47.241Z,2.24
2022-11-21T21:04:13.918Z,2.28
2022-11-21T21:06:40.474Z,2.25
2022-11-21T21:09:07.283Z,2.23
2022-11-21T21:14:21.870Z,2.20
2022-11-21T21:16:48.680Z,2.14
2022-11-21T21:19:15.389Z,1.93
2022-11-21T21:21:42.028Z,1.94
2022-11-21T21:24:10.797Z,1.78
2022-11-21T21:26:42.977Z,1.71
2022-11-21T21:29:11.858Z,1.72
2022-11-21T21:31:38.759Z,1.78
2022-11-21T21:34:05.701Z,1.66
2022-11-21T21:36:32.521Z,1.68
2022-11-21T21:39:00.142Z,1.74
2022-11-21T21:41:29.676Z,1.79
2022-11-21T21:43:57.514Z,1.77
2022-11-21T21:46:25.792Z,1.81
2022-11-21T21:48:57.212Z,1.91
2022-11-21T21:51:26.280Z,2.00
2022-11-21T21:53:54.594Z,2.03
2022-11-21T21:56:22.927Z,2.03
2022-11-21T21:58:50.698Z,2.08
2022-11-21T22:01:19.602Z,2.14
2022-11-21T22:03:58.979Z,2.08
2022-11-21T22:06:25.929Z,2.12
2022-11-21T22:08:54.023Z,2.08
2022-11-21T22:11:22.954Z,2.12
2022-11-21T22:13:58.571Z,2.21
2022-11-21T22:16:25.874Z,2.27
2022-11-21T22:18:53.042Z,2.33
2022-11-21T22:21:25.336Z,2.26
2022-11-21T22:24:23.077Z,2.28
2022-11-21T22:26:38.839Z,2.23
2022-11-21T22:29:05.710Z,2.21
2022-11-21T22:31:32.859Z,2.15
2022-11-21T22:33:59.945Z,2.15
2022-11-21T22:36:26.617Z,2.12
2022-11-21T22:38:54.655Z,2.14
2022-11-21T22:41:26.510Z,2.14
2022-11-21T22:43:55.566Z,2.17
2022-11-21T22:46:22.981Z,2.24
2022-11-21T22:48:49.920Z,2.25
2022-11-21T22:51:22.277Z,2.30
2022-11-21T22:53:49.503Z,2.38
2022-11-21T22:56:18.781Z,2.31
2022-11-21T22:58:45.930Z,2.30
2022-11-21T23:01:23.739Z,2.27
2022-11-21T23:03:50.951Z,2.23
2022-11-21T23:06:20.157Z,2.16
2022-11-21T23:08:47.405Z,2.12
2022-11-21T23:11:17.265Z,2.15
2022-11-21T23:13:45.724Z,2.13
2022-11-21T23:16:13.180Z,2.17
2022-11-21T23:18:40.312Z,2.21
2022-11-21T23:21:08.057Z,2.31
2022-11-21T23:23:34.905Z,2.32
2022-11-21T23:26:01.712Z,2.41
2022-11-21T23:28:28.588Z,2.43
2022-11-21T23:30:55.297Z,2.36
2022-11-21T23:33:22.028Z,2.30
2022-11-21T23:35:48.841Z,2.38
2022-11-21T23:38:16.957Z,2.37
2022-11-21T23:40:47.811Z,2.43
2022-11-21T23:43:15.655Z,2.45
2022-11-21T23:45:42.638Z,2.49
2022-11-21T23:48:09.297Z,2.47
2022-11-21T23:50:35.903Z,2.49
2022-11-21T23:53:03.148Z,2.57
2022-11-21T23:55:29.865Z,2.60
2022-11-21T23:57:56.407Z,2.59
